Wrights, Illinois
Current Conditions -  °F | °C
As of 2:55 PM on Saturday 20 Dec 2014 (Local Time) from KIJX Reporting Station
Overcast Overcast  
Wind Chill: 37°   Ceiling: 2800
Heat Index: 40°   Visibility: 7mi
Dew Point: 33°   Wind: 5mph
Humidity: 77%   Direction: 160°SSE
Pressure: 30.21"   Gusts: NA
Location:  39.38°N, 90.29°W
Report Text: KIJX 202055Z AUTO 16004KT 7SM OVC028 05/01 A3021 RMK AO2 T00450008
Loading
Personal Weather Stations






























Interactive Weather Map New forecast layout! Learn more

10-Day Weather Forecast

Advertisements
Track Severe Weather on mobile